West Galveston, Texas
Current Conditions -  °F | °C
As of 12:52 AM on Sunday 26 Oct 2014 (Local Time) from KGLS Reporting Station
Clear Clear  
Wind Chill: 21°   Ceiling: Unl
Heat Index: 21°   Visibility: 10mi
Dew Point: 16°   Wind: 0mph
Humidity: 75%   Direction: NA
Pressure: 30.09"   Gusts: NA
Location:  29.2029°N, 94.9576°W
Report Text: KGLS 260552Z AUTO 00000KT 10SM CLR 21/16 A3009 RMK AO2 SLP189 T02060161 10217 20200 402560178 58010
Loading
Personal Weather Stations






























Interactive Weather Map
Tropical Storm Tracking
New forecast layout! Learn more

10-Day Weather Forecast

Advertisements
Track Severe Weather on mobile